createdAt,value
2019-05-07T00:02:02.703Z,101716.13
2019-05-07T00:04:34.560Z,101714.78
2019-05-07T00:07:04.963Z,101715.66
2019-05-07T00:09:37.009Z,101704.48
2019-05-07T00:12:07.270Z,101705.92
2019-05-07T00:14:38.103Z,101697.98
2019-05-07T00:17:08.663Z,101702.98
2019-05-07T00:19:39.015Z,101691.83
2019-05-07T00:22:09.594Z,101693.98
2019-05-07T00:24:39.918Z,101699.48
2019-05-07T00:27:13.596Z,101695.09
2019-05-07T00:29:43.931Z,101690.16
2019-05-07T00:32:14.211Z,101687.30
2019-05-07T00:34:48.926Z,101685.63
2019-05-07T00:37:40.311Z,101683.86
2019-05-07T00:40:32.104Z,101685.24
2019-05-07T00:43:08.814Z,101679.15
2019-05-07T00:46:04.185Z,101678.69
2019-05-07T00:48:34.475Z,101685.35
2019-05-07T00:51:22.692Z,101686.95
2019-05-07T00:53:53.095Z,101684.22
2019-05-07T00:56:25.283Z,101687.58
2019-05-07T00:58:55.626Z,101684.22
2019-05-07T01:01:25.898Z,101688.36
2019-05-07T01:03:56.221Z,101687.80
2019-05-07T01:06:27.604Z,101688.96
2019-05-07T01:08:58.100Z,101687.05
2019-05-07T01:11:28.373Z,101690.20
2019-05-07T01:13:59.238Z,101685.59
2019-05-07T01:16:29.624Z,101687.66
2019-05-07T01:19:01.880Z,101683.37
2019-05-07T01:21:32.625Z,101689.74
2019-05-07T01:24:03.502Z,101680.71
2019-05-07T01:26:34.219Z,101683.19
2019-05-07T01:29:04.884Z,101685.17
2019-05-07T01:31:39.122Z,101687.61
2019-05-07T01:34:35.149Z,101677.63
2019-05-07T01:37:05.733Z,101679.43
2019-05-07T01:39:36.001Z,101679.95
2019-05-07T01:42:08.121Z,101682.71
2019-05-07T01:44:38.540Z,101679.83
2019-05-07T01:47:13.065Z,101685.70
2019-05-07T01:49:43.677Z,101686.02
2019-05-07T01:52:15.155Z,101680.56
2019-05-07T01:54:47.439Z,101678.63
2019-05-07T01:57:18.416Z,101678.63
2019-05-07T01:59:49.048Z,101680.73
2019-05-07T02:02:25.340Z,101684.37
2019-05-07T02:05:12.874Z,101682.58
2019-05-07T02:07:48.903Z,101681.27
2019-05-07T02:10:38.175Z,101686.28
2019-05-07T02:13:08.462Z,101687.96
2019-05-07T02:15:39.107Z,101685.44
2019-05-07T02:18:09.410Z,101686.31
2019-05-07T02:20:42.467Z,101689.45
2019-05-07T02:23:12.909Z,101690.20
2019-05-07T02:25:43.658Z,101688.53
2019-05-07T02:28:14.158Z,101686.27
2019-05-07T02:30:44.908Z,101689.97
2019-05-07T02:33:15.374Z,101687.23
2019-05-07T02:35:47.774Z,101692.88
2019-05-07T02:38:24.043Z,101689.45
2019-05-07T02:41:03.135Z,101693.50
2019-05-07T02:43:34.027Z,101693.50
2019-05-07T02:46:30.507Z,101697.40
2019-05-07T02:48:59.106Z,101690.46
2019-05-07T02:51:35.067Z,101689.31
2019-05-07T02:54:13.399Z,101690.84
2019-05-07T02:56:43.845Z,101691.99
2019-05-07T02:59:15.508Z,101699.09
2019-05-07T03:01:46.084Z,101689.58
2019-05-07T03:04:18.057Z,101696.31
2019-05-07T03:06:48.352Z,101691.57
2019-05-07T03:09:22.799Z,101689.92
2019-05-07T03:11:53.260Z,101688.02
2019-05-07T03:14:24.715Z,101689.52
2019-05-07T03:16:55.196Z,101683.49
2019-05-07T03:19:25.776Z,101690.56
2019-05-07T03:21:56.371Z,101691.34
2019-05-07T03:24:45.003Z,101682.47
2019-05-07T03:27:15.571Z,101683.58
2019-05-07T03:29:53.976Z,101686.22
2019-05-07T03:32:37.843Z,101678.48
2019-05-07T03:35:16.269Z,101679.74
2019-05-07T03:37:47.783Z,101679.74
2019-05-07T03:40:18.100Z,101680.03
2019-05-07T03:42:48.730Z,101676.60
2019-05-07T03:45:43.304Z,101677.69
2019-05-07T03:48:15.493Z,101682.00
2019-05-07T03:50:45.949Z,101678.27
2019-05-07T03:53:16.521Z,101674.64
2019-05-07T03:55:46.905Z,101672.09
2019-05-07T03:58:17.427Z,101669.52
2019-05-07T04:00:47.683Z,101667.39
2019-05-07T04:03:19.836Z,101669.04
2019-05-07T04:05:53.128Z,101667.19
2019-05-07T04:08:23.853Z,101671.38
2019-05-07T04:10:54.426Z,101674.58
2019-05-07T04:13:24.995Z,101668.98
2019-05-07T04:15:55.348Z,101668.47
2019-05-07T04:18:25.978Z,101671.39
2019-05-07T04:20:56.557Z,101670.80
2019-05-07T04:23:27.877Z,101669.21
2019-05-07T04:26:17.188Z,101674.56
2019-05-07T04:28:55.604Z,101668.00
2019-05-07T04:31:27.896Z,101673.77
2019-05-07T04:34:03.658Z,101667.59
2019-05-07T04:36:43.717Z,101669.05
2019-05-07T04:39:13.413Z,101664.73
2019-05-07T04:41:44.715Z,101661.69
2019-05-07T04:44:14.987Z,101665.50
2019-05-07T04:46:48.107Z,101664.41
2019-05-07T04:49:18.795Z,101655.30
2019-05-07T04:52:04.051Z,101661.45
2019-05-07T04:54:34.027Z,101659.55
2019-05-07T04:57:06.263Z,101658.95
2019-05-07T04:59:36.544Z,101661.48
2019-05-07T05:02:13.771Z,101664.59
2019-05-07T05:04:44.154Z,101663.39
2019-05-07T05:07:14.730Z,101665.23
2019-05-07T05:09:45.022Z,101660.50
2019-05-07T05:12:15.657Z,101661.80
2019-05-07T05:14:45.969Z,101658.91
2019-05-07T05:17:16.316Z,101655.95
2019-05-07T05:19:46.612Z,101657.83
2019-05-07T05:22:49.108Z,101661.06
2019-05-07T05:25:26.262Z,101658.22
2019-05-07T05:27:56.620Z,101656.98
2019-05-07T05:30:42.464Z,101655.17
2019-05-07T05:33:12.753Z,101653.41
2019-05-07T05:35:43.783Z,101651.58
2019-05-07T05:38:14.284Z,101641.38
2019-05-07T05:40:44.929Z,101645.09
2019-05-07T05:43:31.971Z,101640.30
2019-05-07T05:46:03.472Z,101641.23
2019-05-07T05:48:34.528Z,101644.15
2019-05-07T05:51:12.387Z,101645.70
2019-05-07T05:53:53.178Z,101640.29
2019-05-07T05:56:42.778Z,101644.30
2019-05-07T05:59:44.991Z,101645.69
2019-05-07T06:02:12.125Z,101646.29
2019-05-07T06:04:53.916Z,101640.09
2019-05-07T06:07:37.638Z,101647.37
2019-05-07T06:10:22.311Z,101645.19
2019-05-07T06:12:57.366Z,101643.17
2019-05-07T06:15:52.763Z,101642.17
2019-05-07T06:18:41.872Z,101638.34
2019-05-07T06:21:32.587Z,101638.42
2019-05-07T06:24:05.742Z,101639.18
2019-05-07T06:26:36.351Z,101643.92
2019-05-07T06:29:06.966Z,101645.08
2019-05-07T06:31:37.638Z,101643.31
2019-05-07T06:34:12.551Z,101633.42
2019-05-07T06:36:43.412Z,101637.76
2019-05-07T06:39:19.365Z,101633.48
2019-05-07T06:42:07.469Z,101633.13
2019-05-07T06:44:38.138Z,101638.27
2019-05-07T06:47:08.486Z,101634.05
2019-05-07T06:49:39.483Z,101645.83
2019-05-07T06:52:12.116Z,101645.20
2019-05-07T06:54:42.873Z,101639.63
2019-05-07T06:57:13.179Z,101643.39
2019-05-07T06:59:49.856Z,101635.81
2019-05-07T07:02:28.848Z,101630.01
2019-05-07T07:05:18.093Z,101632.91
2019-05-07T07:08:02.171Z,101642.30
2019-05-07T07:10:54.157Z,101636.23
2019-05-07T07:13:25.290Z,101639.86
2019-05-07T07:15:57.217Z,101635.34
2019-05-07T07:18:27.702Z,101633.91
2019-05-07T07:21:02.232Z,101631.38
2019-05-07T07:23:32.820Z,101632.51
2019-05-07T07:26:03.450Z,101628.73
2019-05-07T07:28:34.285Z,101621.64
2019-05-07T07:31:26.764Z,101622.95
2019-05-07T07:33:58.174Z,101608.16
2019-05-07T07:36:32.026Z,101609.13
2019-05-07T07:39:03.882Z,101594.70
2019-05-07T07:41:38.170Z,101601.16
2019-05-07T07:44:09.707Z,101595.52
2019-05-07T07:46:42.493Z,101585.00
2019-05-07T07:49:15.029Z,101578.75
2019-05-07T07:51:46.040Z,101568.53
2019-05-07T07:54:17.544Z,101562.22
2019-05-07T07:57:12.472Z,101564.02
2019-05-07T07:59:56.825Z,101558.87
2019-05-07T08:02:34.013Z,101562.69
2019-05-07T08:05:05.349Z,101557.06
2019-05-07T08:07:37.100Z,101558.52
2019-05-07T08:10:08.317Z,101550.08
2019-05-07T08:12:38.955Z,101560.36
2019-05-07T08:15:20.863Z,101564.16
2019-05-07T08:17:52.658Z,101572.70
2019-05-07T08:20:26.653Z,101582.13
2019-05-07T08:22:57.118Z,101575.11
2019-05-07T08:25:45.066Z,101575.11
2019-05-07T08:28:17.469Z,101585.50
2019-05-07T08:31:02.944Z,101581.63
2019-05-07T08:33:33.553Z,101577.06
2019-05-07T08:36:09.195Z,101576.77
2019-05-07T08:38:53.237Z,101575.42
2019-05-07T08:41:25.709Z,101572.68
2019-05-07T08:44:11.747Z,101582.86
2019-05-07T08:46:56.304Z,101583.88
2019-05-07T08:49:37.051Z,101576.76
2019-05-07T08:52:04.090Z,101576.06
2019-05-07T08:54:34.942Z,101575.89
2019-05-07T08:57:05.366Z,101581.22
2019-05-07T08:59:36.336Z,101567.36
2019-05-07T09:02:06.596Z,101567.36
2019-05-07T09:04:37.802Z,101566.22
2019-05-07T09:07:08.225Z,101569.41
2019-05-07T09:09:38.517Z,101565.72
2019-05-07T09:12:09.417Z,101563.25
2019-05-07T09:14:42.556Z,101563.06
2019-05-07T09:17:13.117Z,101557.09
2019-05-07T09:19:51.076Z,101555.03
2019-05-07T09:22:18.071Z,101554.55
2019-05-07T09:24:49.146Z,101550.90
2019-05-07T09:27:33.097Z,101547.11
2019-05-07T09:30:17.027Z,101554.30
2019-05-07T09:32:53.417Z,101547.61
2019-05-07T09:35:46.187Z,101543.16
2019-05-07T09:38:16.462Z,101545.39
2019-05-07T09:40:46.786Z,101540.41
2019-05-07T09:43:17.579Z,101532.67
2019-05-07T09:45:49.452Z,101529.53
2019-05-07T09:48:22.000Z,101526.45
2019-05-07T09:50:54.006Z,101526.37
2019-05-07T09:53:27.518Z,101527.77
2019-05-07T09:56:01.993Z,101527.02
2019-05-07T09:58:38.797Z,101532.62
2019-05-07T10:01:04.264Z,101524.47
2019-05-07T10:03:34.818Z,101531.39
2019-05-07T10:06:05.267Z,101527.16
2019-05-07T10:08:36.027Z,101528.97
2019-05-07T10:11:08.184Z,101530.81
2019-05-07T10:14:03.618Z,101534.47
2019-05-07T10:16:56.292Z,101525.73
2019-05-07T10:19:26.874Z,101520.07
2019-05-07T10:21:57.361Z,101522.83
2019-05-07T10:24:28.004Z,101515.92
2019-05-07T10:27:02.255Z,101516.10
2019-05-07T10:29:34.077Z,101522.14
2019-05-07T10:32:04.624Z,101521.80
2019-05-07T10:34:34.957Z,101528.30
2019-05-07T10:37:07.349Z,101520.84
2019-05-07T10:39:39.205Z,101520.84
2019-05-07T10:42:09.778Z,101524.47
2019-05-07T10:44:46.456Z,101517.45
2019-05-07T10:47:39.094Z,101519.38
2019-05-07T10:50:33.109Z,101517.36
2019-05-07T10:52:54.277Z,101512.34
2019-05-07T10:55:24.836Z,101508.03
2019-05-07T10:57:55.132Z,101508.03
2019-05-07T11:00:26.484Z,101507.95
2019-05-07T11:02:58.475Z,101501.91
2019-05-07T11:05:28.858Z,101495.52
2019-05-07T11:07:59.167Z,101496.80
2019-05-07T11:10:29.468Z,101495.68
2019-05-07T11:13:02.113Z,101509.77
2019-05-07T11:15:35.396Z,101506.70
2019-05-07T11:18:14.042Z,101509.14
2019-05-07T11:20:49.307Z,101506.12
2019-05-07T11:23:16.755Z,101509.61
2019-05-07T11:25:48.573Z,101498.95
2019-05-07T11:28:18.878Z,101506.19
2019-05-07T11:30:49.416Z,101496.69
2019-05-07T11:33:21.863Z,101485.17
2019-05-07T11:35:52.829Z,101480.17
2019-05-07T11:38:24.943Z,101481.41
2019-05-07T11:40:56.716Z,101480.86
2019-05-07T11:43:42.251Z,101474.67
2019-05-07T11:46:16.337Z,101470.70
2019-05-07T11:48:55.188Z,101469.73
2019-05-07T11:51:47.572Z,101461.37
2019-05-07T11:54:17.862Z,101459.30
2019-05-07T11:56:48.165Z,101458.48
2019-05-07T11:59:18.900Z,101451.25
2019-05-07T12:01:52.855Z,101440.41
2019-05-07T12:04:23.210Z,101442.67
2019-05-07T12:06:53.541Z,101435.48
2019-05-07T12:09:24.112Z,101433.53
2019-05-07T12:11:54.673Z,101431.88
2019-05-07T12:14:31.383Z,101428.65
2019-05-07T12:16:57.720Z,101423.19
2019-05-07T12:19:27.985Z,101422.83
2019-05-07T12:21:59.692Z,101415.80
2019-05-07T12:24:32.699Z,101411.09
2019-05-07T12:27:02.763Z,101401.31
2019-05-07T12:29:33.153Z,101405.30
2019-05-07T12:32:23.527Z,101399.30
2019-05-07T12:35:02.273Z,101390.20
2019-05-07T12:37:34.251Z,101388.20
2019-05-07T12:40:05.713Z,101378.99
2019-05-07T12:42:36.415Z,101377.69
2019-05-07T12:45:07.247Z,101379.17
2019-05-07T12:47:37.731Z,101373.56
2019-05-07T12:50:08.523Z,101372.17
2019-05-07T12:53:02.307Z,101375.95
2019-05-07T12:55:39.800Z,101374.83
2019-05-07T12:58:12.483Z,101367.30
2019-05-07T13:01:01.303Z,101370.58
2019-05-07T13:03:56.957Z,101357.55
2019-05-07T13:06:27.613Z,101355.65
2019-05-07T13:08:58.212Z,101349.33
2019-05-07T13:11:28.473Z,101350.77
2019-05-07T13:14:02.003Z,101346.27
2019-05-07T13:16:32.488Z,101346.70
2019-05-07T13:19:03.035Z,101349.05
2019-05-07T13:21:45.853Z,101336.89
2019-05-07T13:24:06.162Z,101334.84
2019-05-07T13:26:36.903Z,101335.89
2019-05-07T13:29:07.618Z,101329.80
2019-05-07T13:31:38.259Z,101330.59
2019-05-07T13:34:08.931Z,101334.23
2019-05-07T13:36:42.649Z,101334.16
2019-05-07T13:39:44.329Z,101317.98
2019-05-07T13:42:32.505Z,101308.41
2019-05-07T13:45:22.444Z,101311.25
2019-05-07T13:48:02.831Z,101295.89
2019-05-07T13:50:33.517Z,101297.21
2019-05-07T13:53:04.195Z,101297.08
2019-05-07T13:55:34.534Z,101288.87
2019-05-07T13:58:05.138Z,101297.02
2019-05-07T14:00:45.001Z,101293.81
2019-05-07T14:03:15.297Z,101292.35
2019-05-07T14:05:46.358Z,101287.20
2019-05-07T14:08:17.550Z,101286.58
2019-05-07T14:10:48.196Z,101279.31
2019-05-07T14:13:22.651Z,101272.38
2019-05-07T14:16:11.868Z,101264.16
2019-05-07T14:18:42.234Z,101275.97
2019-05-07T14:21:13.137Z,101273.05
2019-05-07T14:23:43.845Z,101273.70
2019-05-07T14:26:16.971Z,101272.64
2019-05-07T14:28:47.358Z,101274.31
2019-05-07T14:31:19.551Z,101266.02
2019-05-07T14:34:04.609Z,101273.77
2019-05-07T14:36:49.344Z,101272.73
2019-05-07T14:39:22.046Z,101267.70
2019-05-07T14:41:54.471Z,101268.80
2019-05-07T14:44:36.029Z,101278.28
2019-05-07T14:47:06.799Z,101276.58
2019-05-07T14:49:37.919Z,101267.58
2019-05-07T14:52:12.311Z,101268.63
2019-05-07T14:54:43.178Z,101263.17
2019-05-07T14:57:13.881Z,101260.75
2019-05-07T14:59:44.975Z,101255.83
2019-05-07T15:02:15.344Z,101255.23
2019-05-07T15:04:47.078Z,101253.00
2019-05-07T15:07:17.817Z,101250.59
2019-05-07T15:09:51.759Z,101248.06
2019-05-07T15:12:23.348Z,101249.56
2019-05-07T15:14:53.690Z,101241.65
2019-05-07T15:17:33.964Z,101242.48
2019-05-07T15:20:04.595Z,101236.56
2019-05-07T15:22:52.681Z,101235.92
2019-05-07T15:25:24.443Z,101230.22
2019-05-07T15:27:55.020Z,101231.75
2019-05-07T15:30:26.983Z,101234.20
2019-05-07T15:32:57.839Z,101234.58
2019-05-07T15:35:31.861Z,101233.15
2019-05-07T15:38:02.424Z,101227.01
2019-05-07T15:40:33.121Z,101225.88
2019-05-07T15:43:03.689Z,101221.59
2019-05-07T15:45:34.267Z,101214.78
2019-05-07T15:48:06.176Z,101218.92
2019-05-07T15:50:37.144Z,101214.71
2019-05-07T15:53:32.446Z,101213.76
2019-05-07T15:56:03.762Z,101213.23
2019-05-07T15:58:35.403Z,101198.04
2019-05-07T16:01:08.323Z,101197.91
2019-05-07T16:03:42.906Z,101193.53
2019-05-07T16:06:13.692Z,101186.61
2019-05-07T16:08:50.815Z,101186.61
2019-05-07T16:11:25.526Z,101189.72
2019-05-07T16:14:27.221Z,101182.72
2019-05-07T16:17:10.360Z,101174.27
2019-05-07T16:19:42.576Z,101172.11
2019-05-07T16:22:17.311Z,101169.69
2019-05-07T16:24:47.738Z,101163.38
2019-05-07T16:27:18.320Z,101165.09
2019-05-07T16:29:57.533Z,101164.27
2019-05-07T16:32:27.927Z,101162.45
2019-05-07T16:34:58.671Z,101160.33
2019-05-07T16:37:29.277Z,101158.38
2019-05-07T16:40:01.602Z,101150.05
2019-05-07T16:42:33.536Z,101149.98
2019-05-07T16:45:04.286Z,101143.37
2019-05-07T16:47:34.856Z,101141.26
2019-05-07T16:50:06.277Z,101139.38
2019-05-07T16:52:37.102Z,101137.44
2019-05-07T16:55:08.040Z,101138.97
2019-05-07T16:57:47.104Z,101134.67
2019-05-07T17:00:26.550Z,101137.09
2019-05-07T17:02:58.583Z,101139.66
2019-05-07T17:05:28.990Z,101132.28
2019-05-07T17:08:18.569Z,101132.30
2019-05-07T17:10:49.206Z,101132.21
2019-05-07T17:13:19.840Z,101132.02
2019-05-07T17:16:03.357Z,101128.53
2019-05-07T17:18:35.504Z,101135.26
2019-05-07T17:21:06.031Z,101134.41
2019-05-07T17:23:44.040Z,101132.22
2019-05-07T17:26:12.269Z,101126.48
2019-05-07T17:28:42.909Z,101121.49
2019-05-07T17:31:13.540Z,101121.49
2019-05-07T17:33:45.235Z,101131.89
2019-05-07T17:36:18.598Z,101127.07
2019-05-07T17:38:51.983Z,101122.64
2019-05-07T17:41:27.028Z,101122.48
2019-05-07T17:43:55.421Z,101127.91
2019-05-07T17:46:26.312Z,101122.52
2019-05-07T17:48:56.792Z,101123.95
2019-05-07T17:51:46.333Z,101121.04
2019-05-07T17:54:16.698Z,101125.02
2019-05-07T17:56:48.464Z,101118.63
2019-05-07T17:59:20.142Z,101125.20
2019-05-07T18:02:15.323Z,101123.61
2019-05-07T18:04:51.318Z,101125.50
2019-05-07T18:07:19.328Z,101115.11
2019-05-07T18:09:49.734Z,101120.16
2019-05-07T18:12:22.677Z,101117.84
2019-05-07T18:14:58.043Z,101115.61
2019-05-07T18:17:42.071Z,101110.35
2019-05-07T18:20:12.921Z,101108.85
2019-05-07T18:22:45.028Z,101107.81
2019-05-07T18:25:17.417Z,101107.28
2019-05-07T18:27:52.555Z,101109.59
2019-05-07T18:30:22.529Z,101105.49
2019-05-07T18:32:58.974Z,101109.92
2019-05-07T18:35:29.771Z,101110.81
2019-05-07T18:38:02.489Z,101109.03
2019-05-07T18:40:32.561Z,101109.16
2019-05-07T18:43:03.732Z,101106.69
2019-05-07T18:45:34.015Z,101108.23
2019-05-07T18:48:06.962Z,101103.11
2019-05-07T18:50:37.388Z,101099.97
2019-05-07T18:53:07.973Z,101099.97
2019-05-07T18:55:38.308Z,101102.28
2019-05-07T18:58:13.516Z,101104.05
2019-05-07T19:00:51.912Z,101104.98
2019-05-07T19:03:25.232Z,101094.19
2019-05-07T19:05:54.814Z,101099.78
2019-05-07T19:08:26.522Z,101095.86
2019-05-07T19:10:56.980Z,101099.48
2019-05-07T19:13:27.550Z,101105.67
2019-05-07T19:15:57.943Z,101100.80
2019-05-07T19:18:32.032Z,101099.96
2019-05-07T19:21:01.856Z,101096.88
2019-05-07T19:23:33.068Z,101103.02
2019-05-07T19:26:03.690Z,101103.27
2019-05-07T19:28:34.049Z,101102.66
2019-05-07T19:31:05.573Z,101101.27
2019-05-07T19:33:36.230Z,101106.73
2019-05-07T19:36:07.868Z,101100.31
2019-05-07T19:38:38.296Z,101107.66
2019-05-07T19:41:08.890Z,101102.12
2019-05-07T19:43:39.370Z,101107.70
2019-05-07T19:46:12.235Z,101105.35
2019-05-07T19:48:44.074Z,101102.58
2019-05-07T19:51:14.895Z,101108.30
2019-05-07T19:53:45.449Z,101111.45
2019-05-07T19:56:18.249Z,101104.53
2019-05-07T19:58:48.899Z,101101.79
2019-05-07T20:01:23.753Z,101105.00
2019-05-07T20:03:54.047Z,101102.59
2019-05-07T20:06:24.610Z,101111.70
2019-05-07T20:09:09.025Z,101111.25
2019-05-07T20:11:44.756Z,101115.73
2019-05-07T20:14:15.187Z,101105.52
2019-05-07T20:16:45.532Z,101102.63
2019-05-07T20:19:15.992Z,101100.50
2019-05-07T20:21:52.365Z,101100.84
2019-05-07T20:24:22.914Z,101091.91
2019-05-07T20:26:53.609Z,101096.12
2019-05-07T20:29:24.010Z,101091.68
2019-05-07T20:31:54.658Z,101087.80
2019-05-07T20:34:24.977Z,101087.01
2019-05-07T20:36:55.303Z,101070.87
2019-05-07T20:39:25.728Z,101065.24
2019-05-07T20:41:56.170Z,101061.25
2019-05-07T20:44:26.679Z,101062.92
2019-05-07T20:46:57.644Z,101062.89
2019-05-07T20:49:28.084Z,101059.57
2019-05-07T20:51:58.476Z,101058.83
2019-05-07T20:54:50.319Z,101052.31
2019-05-07T20:57:26.472Z,101044.03
2019-05-07T20:59:58.024Z,101049.72
2019-05-07T21:02:42.534Z,101040.75
2019-05-07T21:05:02.990Z,101038.11
2019-05-07T21:07:34.553Z,101030.80
2019-05-07T21:10:05.651Z,101030.41
2019-05-07T21:12:36.023Z,101028.93
2019-05-07T21:15:06.667Z,101036.00
2019-05-07T21:17:37.066Z,101025.41
2019-05-07T21:20:07.740Z,101022.41
2019-05-07T21:22:38.309Z,101022.80
2019-05-07T21:25:08.794Z,101018.84
2019-05-07T21:27:39.210Z,101013.11
2019-05-07T21:30:09.775Z,101004.38
2019-05-07T21:32:42.115Z,101011.88
2019-05-07T21:35:12.935Z,101010.80
2019-05-07T21:37:43.596Z,101008.98
2019-05-07T21:40:16.015Z,101009.66
2019-05-07T21:42:49.330Z,101002.17
2019-05-07T21:45:23.650Z,100994.14
2019-05-07T21:47:54.385Z,100992.04
2019-05-07T21:50:23.971Z,100984.20
2019-05-07T21:52:59.553Z,100985.32
2019-05-07T21:55:35.901Z,100982.53
2019-05-07T21:58:43.503Z,100975.48
2019-05-07T22:01:22.177Z,100973.52
2019-05-07T22:03:54.365Z,100975.52
2019-05-07T22:06:24.695Z,100973.60
2019-05-07T22:08:56.620Z,100974.05
2019-05-07T22:11:26.949Z,100967.93
2019-05-07T22:13:57.254Z,100969.87
2019-05-07T22:16:27.761Z,100966.72
2019-05-07T22:18:58.108Z,100961.83
2019-05-07T22:21:28.673Z,100948.49
2019-05-07T22:23:58.954Z,100946.93
2019-05-07T22:26:32.008Z,100943.93
2019-05-07T22:29:03.120Z,100941.56
2019-05-07T22:31:58.551Z,100929.77
2019-05-07T22:34:51.879Z,100924.19
2019-05-07T22:37:23.957Z,100922.38
2019-05-07T22:40:05.103Z,100916.75
2019-05-07T22:42:38.734Z,100906.55
2019-05-07T22:45:12.097Z,100906.55
2019-05-07T22:47:43.060Z,100904.05
2019-05-07T22:50:13.458Z,100901.00
2019-05-07T22:52:45.068Z,100895.45
2019-05-07T22:55:15.624Z,100894.66
2019-05-07T22:58:15.277Z,100898.05
2019-05-07T23:00:54.884Z,100893.91
2019-05-07T23:03:25.259Z,100895.84
2019-05-07T23:05:57.486Z,100886.20
2019-05-07T23:08:29.854Z,100878.44
2019-05-07T23:11:02.822Z,100866.80
2019-05-07T23:13:33.120Z,100866.88
2019-05-07T23:16:06.983Z,100862.02
2019-05-07T23:18:38.239Z,100858.75
2019-05-07T23:21:09.097Z,100853.28
2019-05-07T23:23:42.003Z,100849.41
2019-05-07T23:26:14.887Z,100844.50
2019-05-07T23:28:45.216Z,100837.55
2019-05-07T23:31:17.303Z,100832.56
2019-05-07T23:33:52.382Z,100832.28
2019-05-07T23:36:24.681Z,100825.17
2019-05-07T23:38:55.046Z,100814.66
2019-05-07T23:41:45.160Z,100814.66
2019-05-07T23:44:16.883Z,100809.20
2019-05-07T23:46:47.398Z,100805.59
2019-05-07T23:49:17.785Z,100798.91
2019-05-07T23:51:48.372Z,100797.56
2019-05-07T23:54:18.857Z,100795.66
2019-05-07T23:57:04.460Z,100797.41
2019-05-07T23:59:22.157Z,100794.27
